createdAt,value
2018-06-13T00:00:08.207Z,17.79
2018-06-13T00:01:08.492Z,17.78
2018-06-13T00:02:08.516Z,17.74
2018-06-13T00:03:08.541Z,17.72
2018-06-13T00:05:08.323Z,17.79
2018-06-13T00:06:08.088Z,17.75
2018-06-13T00:07:23.023Z,17.75
2018-06-13T00:08:23.046Z,17.72
2018-06-13T00:09:08.157Z,17.81
2018-06-13T00:10:08.445Z,17.75
2018-06-13T00:11:08.468Z,17.79
2018-06-13T00:12:08.494Z,17.77
2018-06-13T00:13:08.778Z,17.74
2018-06-13T00:14:08.803Z,17.75
2018-06-13T00:15:08.560Z,17.75
2018-06-13T00:16:08.848Z,17.72
2018-06-13T00:17:08.346Z,17.77
2018-06-13T00:18:23.546Z,17.77
2018-06-13T00:19:23.566Z,17.64
2018-06-13T00:20:23.590Z,17.7
2018-06-13T00:22:08.991Z,17.74
2018-06-13T00:23:09.008Z,17.7
2018-06-13T00:24:09.045Z,17.68
2018-06-13T00:25:08.797Z,17.78
2018-06-13T00:26:08.820Z,17.68
2018-06-13T00:27:09.105Z,17.68
2018-06-13T00:28:09.135Z,17.51
2018-06-13T00:29:09.151Z,17.55
2018-06-13T00:30:09.179Z,17.58
2018-06-13T00:31:09.203Z,17.59
2018-06-13T00:32:09.222Z,17.72
2018-06-13T00:33:09.248Z,17.56
2018-06-13T00:34:09.272Z,17.52
2018-06-13T00:35:09.299Z,17.59
2018-06-13T00:36:23.968Z,17.52
2018-06-13T00:37:09.493Z,17.51
2018-06-13T00:38:08.842Z,17.48
2018-06-13T00:39:09.393Z,17.48
2018-06-13T00:40:09.420Z,17.52
2018-06-13T00:41:09.441Z,17.51
2018-06-13T00:42:09.462Z,17.62
2018-06-13T00:43:09.482Z,17.62
2018-06-13T00:44:09.253Z,17.54
2018-06-13T00:45:09.267Z,17.55
2018-06-13T00:46:24.209Z,17.62
2018-06-13T00:48:09.344Z,17.54
2018-06-13T00:49:09.628Z,17.38
2018-06-13T00:51:24.321Z,17.43
2018-06-13T00:52:24.344Z,17.4
2018-06-13T00:53:09.715Z,17.55
2018-06-13T00:54:09.479Z,17.49
2018-06-13T00:55:09.769Z,17.49
2018-06-13T00:56:09.527Z,17.38
2018-06-13T00:57:09.554Z,17.54
2018-06-13T00:58:09.837Z,17.46
2018-06-13T00:59:09.861Z,17.56
2018-06-13T01:00:09.626Z,17.4
2018-06-13T01:01:09.907Z,17.38
2018-06-13T01:03:09.430Z,17.41
2018-06-13T01:04:24.629Z,17.4
2018-06-13T01:05:10.005Z,17.41
2018-06-13T01:06:10.025Z,17.33
2018-06-13T01:07:10.045Z,17.37
2018-06-13T01:08:24.719Z,17.26
2018-06-13T01:09:10.098Z,17.37
2018-06-13T01:10:09.857Z,17.4
2018-06-13T01:11:10.144Z,17.4
2018-06-13T01:12:09.904Z,17.41
2018-06-13T01:13:10.189Z,17.4
2018-06-13T01:14:10.209Z,17.26
2018-06-13T01:15:10.235Z,17.26
2018-06-13T01:16:09.997Z,17.4
2018-06-13T01:17:10.283Z,17.25
2018-06-13T01:18:10.044Z,17.31
2018-06-13T01:19:10.331Z,17.25
2018-06-13T01:20:10.090Z,17.25
2018-06-13T01:21:10.438Z,17.3
2018-06-13T01:22:25.050Z,17.26
2018-06-13T01:23:25.074Z,17.25
2018-06-13T01:24:10.449Z,17.14
2018-06-13T01:25:10.468Z,17.22
2018-06-13T01:26:10.492Z,17.15
2018-06-13T01:27:10.520Z,17.23
2018-06-13T01:28:10.543Z,17.22
2018-06-13T01:29:10.414Z,17.19
2018-06-13T01:30:10.587Z,17.25
2018-06-13T01:31:10.614Z,17.18
2018-06-13T01:32:10.635Z,17.18
2018-06-13T01:33:10.659Z,17.16
2018-06-13T01:34:10.684Z,17.15
2018-06-13T01:35:10.443Z,17.19
2018-06-13T01:36:10.731Z,17.18
2018-06-13T01:37:10.756Z,17.19
2018-06-13T01:38:10.774Z,17.19
2018-06-13T01:39:10.536Z,17.15
2018-06-13T01:40:10.564Z,17.12
2018-06-13T01:41:10.841Z,17.07
2018-06-13T01:42:10.868Z,17.12
2018-06-13T01:43:10.903Z,17.11
2018-06-13T01:44:10.920Z,17.06
2018-06-13T01:45:10.937Z,17.04
2018-06-13T01:46:10.971Z,16.97
2018-06-13T01:47:10.984Z,17.07
2018-06-13T01:48:10.755Z,17.03
2018-06-13T01:49:11.035Z,17.07
2018-06-13T01:50:11.057Z,17.01
2018-06-13T01:51:11.080Z,17.04
2018-06-13T01:53:25.775Z,16.91
2018-06-13T01:54:25.798Z,16.89
2018-06-13T01:55:25.821Z,16.93
2018-06-13T01:56:11.195Z,16.97
2018-06-13T01:57:11.225Z,16.96
2018-06-13T01:58:11.240Z,16.96
2018-06-13T01:59:11.273Z,16.93
2018-06-13T02:00:11.287Z,16.97
2018-06-13T02:01:11.053Z,16.93
2018-06-13T02:02:11.336Z,16.97
2018-06-13T02:03:11.096Z,16.96
2018-06-13T02:04:11.455Z,16.97
2018-06-13T02:05:11.409Z,16.97
2018-06-13T02:06:11.526Z,16.91
2018-06-13T02:07:11.449Z,16.89
2018-06-13T02:08:11.474Z,16.82
2018-06-13T02:09:26.147Z,16.85
2018-06-13T02:10:11.524Z,16.85
2018-06-13T02:11:26.195Z,16.88
2018-06-13T02:12:11.565Z,16.82
2018-06-13T02:13:11.589Z,16.79
2018-06-13T02:14:11.613Z,16.85
2018-06-13T02:15:11.638Z,16.68
2018-06-13T02:16:26.050Z,16.81
2018-06-13T02:17:11.422Z,16.76
2018-06-13T02:18:11.708Z,16.64
2018-06-13T02:19:11.730Z,16.73
2018-06-13T02:20:11.758Z,16.82
2018-06-13T02:21:11.776Z,16.7
2018-06-13T02:22:11.807Z,16.67
2018-06-13T02:23:11.824Z,16.71
2018-06-13T02:24:11.587Z,16.67
2018-06-13T02:25:26.520Z,16.66
2018-06-13T02:26:11.639Z,16.71
2018-06-13T02:27:26.679Z,16.61
2018-06-13T02:28:11.940Z,16.67
2018-06-13T02:29:11.961Z,16.66
2018-06-13T02:31:12.010Z,16.63
2018-06-13T02:32:11.772Z,16.52
2018-06-13T02:33:12.055Z,16.49
2018-06-13T02:34:12.079Z,16.53
2018-06-13T02:35:11.839Z,16.56
2018-06-13T02:36:12.127Z,16.5
2018-06-13T02:37:12.156Z,16.52
2018-06-13T02:38:11.910Z,16.56
2018-06-13T02:39:12.193Z,16.48
2018-06-13T02:40:12.219Z,16.49
2018-06-13T02:41:12.298Z,16.46
2018-06-13T02:42:12.010Z,16.53
2018-06-13T02:43:26.676Z,16.46
2018-06-13T02:44:12.310Z,16.49
2018-06-13T02:45:12.347Z,16.46
2018-06-13T02:46:12.359Z,16.46
2018-06-13T02:47:12.381Z,16.5
2018-06-13T02:48:12.404Z,16.48
2018-06-13T02:49:12.163Z,16.48
2018-06-13T02:50:12.194Z,16.43
2018-06-13T02:51:12.472Z,16.53
2018-06-13T02:52:12.506Z,16.52
2018-06-13T02:53:12.525Z,16.46
2018-06-13T02:54:12.541Z,16.49
2018-06-13T02:55:12.578Z,16.48
2018-06-13T02:56:12.605Z,16.35
2018-06-13T02:57:12.349Z,16.46
2018-06-13T02:58:27.289Z,16.43
2018-06-13T02:59:12.663Z,16.48
2018-06-13T03:00:12.688Z,16.49
2018-06-13T03:01:12.705Z,16.41
2018-06-13T03:02:12.728Z,16.57
2018-06-13T03:03:12.757Z,16.45
2018-06-13T03:04:12.779Z,16.43
2018-06-13T03:07:27.499Z,16.35
2018-06-13T03:08:12.871Z,16.31
2018-06-13T03:10:12.920Z,16.35
2018-06-13T03:11:12.674Z,16.34
2018-06-13T03:13:12.981Z,16.31
2018-06-13T03:14:13.005Z,16.24
2018-06-13T03:15:13.092Z,16.24
2018-06-13T03:16:12.800Z,16.21
2018-06-13T03:17:27.470Z,16.38
2018-06-13T03:18:13.115Z,16.3
2018-06-13T03:19:12.880Z,16.24
2018-06-13T03:20:12.884Z,16.3
2018-06-13T03:21:12.904Z,16.35
2018-06-13T03:23:12.953Z,16.42
2018-06-13T03:24:12.974Z,16.31
2018-06-13T03:25:13.261Z,16.35
2018-06-13T03:26:13.019Z,16.41
2018-06-13T03:27:13.304Z,16.42
2018-06-13T03:28:27.982Z,16.34
2018-06-13T03:29:13.369Z,16.43
2018-06-13T03:31:13.403Z,16.43
2018-06-13T03:32:13.419Z,16.24
2018-06-13T03:33:13.448Z,16.35
2018-06-13T03:34:13.464Z,16.3
2018-06-13T03:35:13.491Z,16.31
2018-06-13T03:36:13.250Z,16.45
2018-06-13T03:37:13.273Z,16.39
2018-06-13T03:38:13.558Z,16.43
2018-06-13T03:39:13.326Z,16.39
2018-06-13T03:40:13.347Z,16.33
2018-06-13T03:41:13.808Z,16.48
2018-06-13T03:42:13.649Z,16.42
2018-06-13T03:43:28.325Z,16.39
2018-06-13T03:44:13.700Z,16.42
2018-06-13T03:46:28.394Z,16.33
2018-06-13T03:47:13.767Z,16.3
2018-06-13T03:48:13.786Z,16.46
2018-06-13T03:49:13.810Z,16.42
2018-06-13T03:50:13.841Z,16.27
2018-06-13T03:51:13.858Z,16.35
2018-06-13T03:52:13.879Z,16.3
2018-06-13T03:53:13.642Z,16.35
2018-06-13T03:54:13.925Z,16.31
2018-06-13T03:55:13.694Z,16.42
2018-06-13T03:57:28.649Z,16.33
2018-06-13T03:58:14.027Z,16.31
2018-06-13T03:59:14.048Z,16.45
2018-06-13T04:00:28.716Z,16.28
2018-06-13T04:01:14.087Z,16.33
2018-06-13T04:02:28.764Z,16.35
2018-06-13T04:03:14.170Z,16.38
2018-06-13T04:05:28.877Z,16.39
2018-06-13T04:06:14.205Z,16.49
2018-06-13T04:07:28.900Z,16.49
2018-06-13T04:08:14.247Z,16.48
2018-06-13T04:09:14.277Z,16.46
2018-06-13T04:10:14.038Z,16.56
2018-06-13T04:11:14.325Z,16.57
2018-06-13T04:12:14.310Z,16.39
2018-06-13T04:13:29.010Z,16.43
2018-06-13T04:14:14.387Z,16.48
2018-06-13T04:15:14.419Z,16.48
2018-06-13T04:16:14.426Z,16.41
2018-06-13T04:17:14.431Z,16.49
2018-06-13T04:18:29.113Z,16.49
2018-06-13T04:19:14.475Z,16.53
2018-06-13T04:21:14.519Z,16.49
2018-06-13T04:22:14.287Z,16.57
2018-06-13T04:23:14.566Z,16.49
2018-06-13T04:24:14.592Z,16.52
2018-06-13T04:25:14.611Z,16.46
2018-06-13T04:26:29.302Z,16.46
2018-06-13T04:27:14.703Z,16.41
2018-06-13T04:28:29.342Z,16.39
2018-06-13T04:29:14.456Z,16.43
2018-06-13T04:30:14.732Z,16.46
2018-06-13T04:31:14.752Z,16.38
2018-06-13T04:32:14.774Z,16.41
2018-06-13T04:33:29.458Z,16.46
2018-06-13T04:34:14.833Z,16.5
2018-06-13T04:35:14.588Z,16.39
2018-06-13T04:36:14.620Z,16.42
2018-06-13T04:37:14.891Z,16.53
2018-06-13T04:38:14.919Z,16.41
2018-06-13T04:39:29.600Z,16.5
2018-06-13T04:40:14.963Z,16.38
2018-06-13T04:41:14.984Z,16.57
2018-06-13T04:42:15.007Z,16.5
2018-06-13T04:43:15.031Z,16.48
2018-06-13T04:44:15.051Z,16.52
2018-06-13T04:46:15.097Z,16.58
2018-06-13T04:47:14.861Z,16.68
2018-06-13T04:48:15.144Z,16.64
2018-06-13T04:49:14.909Z,16.57
2018-06-13T04:50:15.189Z,16.63
2018-06-13T04:51:15.215Z,16.64
2018-06-13T04:52:15.240Z,16.66
2018-06-13T04:53:15.363Z,16.7
2018-06-13T04:54:15.282Z,16.58
2018-06-13T04:55:15.306Z,16.56
2018-06-13T04:56:15.368Z,16.53
2018-06-13T04:57:15.096Z,16.64
2018-06-13T04:58:30.041Z,16.73
2018-06-13T04:59:15.399Z,16.61
2018-06-13T05:00:14.907Z,16.63
2018-06-13T05:01:15.446Z,16.61
2018-06-13T05:02:15.209Z,16.66
2018-06-13T05:04:15.518Z,16.78
2018-06-13T05:05:30.198Z,16.82
2018-06-13T05:06:15.561Z,16.88
2018-06-13T05:09:15.632Z,16.68
2018-06-13T05:10:15.663Z,16.76
2018-06-13T05:11:15.424Z,16.71
2018-06-13T05:12:15.712Z,16.81
2018-06-13T05:13:15.727Z,16.93
2018-06-13T05:14:15.746Z,17.07
2018-06-13T05:15:30.429Z,17.07
2018-06-13T05:16:15.536Z,17.12
2018-06-13T05:17:15.298Z,17.12
2018-06-13T05:18:15.839Z,17.06
2018-06-13T05:19:15.859Z,17.15
2018-06-13T05:21:30.570Z,17.16
2018-06-13T05:22:15.928Z,17.25
2018-06-13T05:23:15.955Z,17.08
2018-06-13T05:25:16.007Z,17.12
2018-06-13T05:26:16.026Z,17.14
2018-06-13T05:27:16.049Z,17.18
2018-06-13T05:28:16.070Z,17.25
2018-06-13T05:29:15.838Z,17.33
2018-06-13T05:30:16.121Z,17.28
2018-06-13T05:31:30.544Z,17.16
2018-06-13T05:32:15.908Z,17.19
2018-06-13T05:33:15.929Z,17.28
2018-06-13T05:34:16.208Z,17.26
2018-06-13T05:35:16.234Z,17.38
2018-06-13T05:36:16.258Z,17.43
2018-06-13T05:37:30.938Z,17.46
2018-06-13T05:38:16.307Z,17.25
2018-06-13T05:39:16.112Z,17.41
2018-06-13T05:40:16.103Z,17.21
2018-06-13T05:41:16.385Z,17.21
2018-06-13T05:42:16.400Z,17.26
2018-06-13T05:43:16.428Z,17.44
2018-06-13T05:44:16.445Z,17.52
2018-06-13T05:45:16.468Z,17.43
2018-06-13T05:47:31.174Z,17.54
2018-06-13T05:48:16.535Z,17.54
2018-06-13T05:49:16.564Z,17.38
2018-06-13T05:50:16.583Z,17.52
2018-06-13T05:51:16.615Z,17.55
2018-06-13T05:52:16.639Z,17.56
2018-06-13T05:53:31.414Z,17.4
2018-06-13T05:54:16.677Z,17.34
2018-06-13T05:55:16.702Z,17.25
2018-06-13T05:57:16.751Z,17.26
2018-06-13T05:58:16.780Z,17.19
2018-06-13T05:59:16.796Z,17.15
2018-06-13T06:00:16.836Z,17.16
2018-06-13T06:01:16.995Z,17.22
2018-06-13T06:02:16.873Z,17.22
2018-06-13T06:03:16.632Z,17.22
2018-06-13T06:04:16.913Z,17.26
2018-06-13T06:05:16.680Z,17.26
2018-06-13T06:06:16.960Z,17.38
2018-06-13T06:07:16.980Z,17.38
2018-06-13T06:08:31.671Z,17.34
2018-06-13T06:09:16.773Z,17.38
2018-06-13T06:10:16.925Z,17.34
2018-06-13T06:11:17.079Z,17.38
2018-06-13T06:12:17.100Z,17.52
2018-06-13T06:13:17.123Z,17.48
2018-06-13T06:14:17.153Z,17.48
2018-06-13T06:15:17.174Z,17.48
2018-06-13T06:17:17.220Z,17.4
2018-06-13T06:18:31.645Z,17.34
2018-06-13T06:19:17.021Z,17.3
2018-06-13T06:20:17.032Z,17.46
2018-06-13T06:21:17.314Z,17.44
2018-06-13T06:22:17.344Z,17.51
2018-06-13T06:23:17.099Z,17.26
2018-06-13T06:24:17.386Z,17.28
2018-06-13T06:25:17.426Z,17.26
2018-06-13T06:27:17.453Z,17.15
2018-06-13T06:28:17.219Z,17.14
2018-06-13T06:29:32.164Z,17.19
2018-06-13T06:30:17.521Z,17.16
2018-06-13T06:31:17.289Z,17.26
2018-06-13T06:32:17.056Z,17.28
2018-06-13T06:33:17.342Z,17.3
2018-06-13T06:34:17.714Z,17.28
2018-06-13T06:35:17.641Z,17.36
2018-06-13T06:36:17.424Z,17.28
2018-06-13T06:37:17.686Z,17.43
2018-06-13T06:38:17.711Z,17.23
2018-06-13T06:39:17.732Z,17.3
2018-06-13T06:40:32.419Z,17.31
2018-06-13T06:41:17.784Z,17.44
2018-06-13T06:42:17.954Z,17.4
2018-06-13T06:43:17.826Z,17.43
2018-06-13T06:44:17.857Z,17.55
2018-06-13T06:45:17.620Z,17.52
2018-06-13T06:46:17.899Z,17.49
2018-06-13T06:47:17.921Z,17.51
2018-06-13T06:48:17.689Z,17.62
2018-06-13T06:49:32.630Z,17.55
2018-06-13T06:50:17.993Z,17.58
2018-06-13T06:51:18.020Z,17.52
2018-06-13T06:52:18.049Z,17.59
2018-06-13T06:54:17.829Z,17.63
2018-06-13T06:55:18.168Z,17.58
2018-06-13T06:56:32.803Z,17.71
2018-06-13T06:58:17.927Z,17.81
2018-06-13T07:00:18.230Z,18.07
2018-06-13T07:02:18.278Z,18.1
2018-06-13T07:03:18.304Z,18.29
2018-06-13T07:04:18.063Z,18.15
2018-06-13T07:05:18.358Z,18.2
2018-06-13T07:06:18.374Z,18.44
2018-06-13T07:07:18.395Z,18.54
2018-06-13T07:08:18.422Z,18.73
2018-06-13T07:09:18.452Z,18.9
2018-06-13T07:10:18.206Z,19.13
2018-06-13T07:11:17.973Z,19.21
2018-06-13T07:12:33.173Z,19.37
2018-06-13T07:13:18.700Z,19.47
2018-06-13T07:14:18.564Z,19.74
2018-06-13T07:15:18.592Z,19.51
2018-06-13T07:16:18.614Z,19.41
2018-06-13T07:18:18.399Z,19.8
2018-06-13T07:19:18.697Z,20.08
2018-06-13T07:20:18.704Z,19.87
2018-06-13T07:21:18.471Z,20.24
2018-06-13T07:22:33.414Z,20.54
2018-06-13T07:23:18.778Z,20.69
2018-06-13T07:24:18.554Z,20.8
2018-06-13T07:25:18.566Z,20.8
2018-06-13T07:27:18.617Z,20.95
2018-06-13T07:29:18.926Z,20.98
2018-06-13T07:31:18.975Z,20.77
2018-06-13T07:32:19.000Z,20.2
2018-06-13T07:33:19.022Z,20.38
2018-06-13T07:34:19.048Z,20.38
2018-06-13T07:35:18.813Z,20.54
2018-06-13T07:36:19.098Z,20.7
2018-06-13T07:37:19.123Z,20.39
2018-06-13T07:38:33.808Z,20.02
2018-06-13T07:39:19.177Z,19.84
2018-06-13T07:40:19.201Z,19.83
2018-06-13T07:42:19.247Z,19.73
2018-06-13T07:43:33.936Z,19.71
2018-06-13T07:44:33.965Z,20.05
2018-06-13T07:46:19.348Z,20.23
2018-06-13T07:47:19.374Z,20.31
2018-06-13T07:48:19.398Z,20.72
2018-06-13T07:49:19.644Z,20.85
2018-06-13T07:50:34.109Z,20.35
2018-06-13T07:51:19.525Z,20.39
2018-06-13T07:52:34.157Z,20.55
2018-06-13T07:53:33.924Z,20.88
2018-06-13T07:54:19.545Z,21.22
2018-06-13T07:56:19.603Z,21.49
2018-06-13T07:57:19.626Z,21.68
2018-06-13T07:58:19.399Z,21.99
2018-06-13T07:59:19.678Z,21.9
2018-06-13T08:00:19.435Z,21.56
2018-06-13T08:01:19.464Z,21.32
2018-06-13T08:02:19.955Z,21.42
2018-06-13T08:03:19.774Z,21.4
2018-06-13T08:04:19.539Z,21.47
2018-06-13T08:05:19.568Z,21.49
2018-06-13T08:06:19.847Z,21.19
2018-06-13T08:07:19.614Z,21.07
2018-06-13T08:08:20.071Z,21.24
2018-06-13T08:09:20.030Z,21.19
2018-06-13T08:10:19.951Z,21.09
2018-06-13T08:11:19.719Z,21.14
2018-06-13T08:12:19.999Z,21.38
2018-06-13T08:13:20.025Z,22.09
2018-06-13T08:14:20.049Z,22.39
2018-06-13T08:15:34.733Z,22.72
2018-06-13T08:16:19.844Z,22.72
2018-06-13T08:17:20.129Z,22.79
2018-06-13T08:18:20.153Z,22.76
2018-06-13T08:19:20.176Z,22.83
2018-06-13T08:20:20.262Z,22.8
2018-06-13T08:21:19.969Z,22.65
2018-06-13T08:22:20.295Z,22.36
2018-06-13T08:23:20.315Z,22.14
2018-06-13T08:24:20.051Z,21.98
2018-06-13T08:25:34.990Z,21.72
2018-06-13T08:26:20.358Z,21.47
2018-06-13T08:27:20.383Z,21.35
2018-06-13T08:28:20.412Z,21.32
2018-06-13T08:29:20.434Z,21.21
2018-06-13T08:30:20.200Z,21.44
2018-06-13T08:31:35.144Z,21.42
2018-06-13T08:33:20.537Z,21.37
2018-06-13T08:35:20.587Z,21.61
2018-06-13T08:36:20.612Z,21.49
2018-06-13T08:37:20.376Z,21.61
2018-06-13T08:38:20.661Z,21.56
2018-06-13T08:39:35.347Z,21.77
2018-06-13T08:40:20.708Z,21.86
2018-06-13T08:41:20.753Z,21.91
2018-06-13T08:42:20.769Z,22.17
2018-06-13T08:43:20.787Z,22.85
2018-06-13T08:44:20.812Z,23.95
2018-06-13T08:45:20.839Z,24.15
2018-06-13T08:46:35.536Z,24.31
2018-06-13T08:47:35.292Z,24.12
2018-06-13T08:48:20.922Z,24.45
2018-06-13T08:49:20.950Z,23.94
2018-06-13T08:50:20.966Z,24.47
2018-06-13T08:51:20.992Z,25.6
2018-06-13T08:52:21.019Z,26.28
2018-06-13T08:53:21.047Z,26.33
2018-06-13T08:54:35.734Z,25.4
2018-06-13T08:55:35.508Z,24.71
2018-06-13T08:56:35.835Z,23.91
2018-06-13T08:57:21.151Z,23.38
2018-06-13T08:58:21.177Z,23.05
2018-06-13T08:59:21.392Z,22.24
2018-06-13T09:00:21.234Z,21.71
2018-06-13T09:01:21.260Z,21.43
2018-06-13T09:02:21.025Z,21.35
2018-06-13T09:04:21.340Z,20.97
2018-06-13T09:05:21.365Z,20.73
2018-06-13T09:06:21.400Z,20.66
2018-06-13T09:07:21.162Z,20.59
2018-06-13T09:08:21.446Z,20.61
2018-06-13T09:09:20.950Z,20.77
2018-06-13T09:10:21.495Z,20.57
2018-06-13T09:11:21.273Z,20.66
2018-06-13T09:12:21.289Z,20.64
2018-06-13T09:13:21.572Z,20.69
2018-06-13T09:14:21.593Z,20.72
2018-06-13T09:15:21.366Z,20.66
2018-06-13T09:16:21.396Z,20.52
2018-06-13T09:17:21.682Z,20.61
2018-06-13T09:18:36.361Z,20.8
2018-06-13T09:19:21.725Z,20.77
2018-06-13T09:20:21.334Z,20.82
2018-06-13T09:22:21.554Z,21.03
2018-06-13T09:23:21.826Z,21.13
2018-06-13T09:24:21.849Z,21.21
2018-06-13T09:25:21.930Z,21.22
2018-06-13T09:26:21.905Z,21.49
2018-06-13T09:27:36.588Z,21.75
2018-06-13T09:28:21.952Z,22.03
2018-06-13T09:29:21.977Z,21.91
2018-06-13T09:30:21.747Z,21.69
2018-06-13T09:31:22.221Z,21.72
2018-06-13T09:34:22.103Z,22.24
2018-06-13T09:35:22.135Z,22.91
2018-06-13T09:36:22.157Z,23.04
2018-06-13T09:38:22.207Z,22.9
2018-06-13T09:39:36.896Z,22.37
2018-06-13T09:40:22.268Z,22.49
2018-06-13T09:41:22.282Z,22.21
2018-06-13T09:42:22.326Z,22.15
2018-06-13T09:43:36.995Z,21.62
2018-06-13T09:44:22.366Z,21.56
2018-06-13T09:45:22.399Z,21.1
2018-06-13T09:46:22.414Z,20.69
2018-06-13T09:47:28.515Z,20.52
2018-06-13T09:48:22.465Z,20.26
2018-06-13T09:49:22.595Z,20.03
2018-06-13T09:50:37.182Z,20.02
2018-06-13T09:51:22.547Z,19.87
2018-06-13T09:52:22.576Z,20.03
2018-06-13T09:54:22.616Z,20.06
2018-06-13T09:55:22.647Z,20.08
2018-06-13T09:56:22.671Z,20.08
2018-06-13T09:57:22.692Z,20.14
2018-06-13T09:59:22.747Z,20.28
2018-06-13T10:00:22.776Z,20.42
2018-06-13T10:01:22.798Z,20.52
2018-06-13T10:02:22.560Z,20.57
2018-06-13T10:03:22.844Z,20.57
2018-06-13T10:04:22.611Z,20.62
2018-06-13T10:05:22.903Z,20.21
2018-06-13T10:06:37.580Z,20.54
2018-06-13T10:07:22.947Z,20.61
2018-06-13T10:08:23.078Z,20.33
2018-06-13T10:09:22.999Z,20.26
2018-06-13T10:10:23.022Z,20.33
2018-06-13T10:11:23.118Z,20.42
2018-06-13T10:12:23.069Z,20.38
2018-06-13T10:13:23.098Z,20.43
2018-06-13T10:14:37.781Z,20.61
2018-06-13T10:15:23.140Z,20.66
2018-06-13T10:16:37.573Z,20.39
2018-06-13T10:17:23.193Z,20.26
2018-06-13T10:18:23.218Z,20.52
2018-06-13T10:19:23.244Z,20.73
2018-06-13T10:21:23.039Z,20.94
2018-06-13T10:23:23.084Z,20.85
2018-06-13T10:24:23.366Z,20.91
2018-06-13T10:25:23.459Z,21.13
2018-06-13T10:27:38.108Z,21.49
2018-06-13T10:28:23.211Z,21.62
2018-06-13T10:29:23.236Z,21.82
2018-06-13T10:30:23.259Z,21.9
2018-06-13T10:31:38.205Z,22
2018-06-13T10:32:23.567Z,22.14
2018-06-13T10:33:23.341Z,22.24
2018-06-13T10:34:23.496Z,22.36
2018-06-13T10:35:23.387Z,22.49
2018-06-13T10:37:23.702Z,22.52
2018-06-13T10:38:38.385Z,22.67
2018-06-13T10:39:23.744Z,22.67
2018-06-13T10:40:23.773Z,22.8
2018-06-13T10:42:23.819Z,22.95
2018-06-13T10:43:23.590Z,22.94
2018-06-13T10:44:23.878Z,23.02
2018-06-13T10:45:23.897Z,23.01
2018-06-13T10:46:38.586Z,22.82
2018-06-13T10:47:23.956Z,22.92
2018-06-13T10:48:23.752Z,23.04
2018-06-13T10:49:24.015Z,23.19
2018-06-13T10:50:24.038Z,22.94
2018-06-13T10:51:24.052Z,22.67
2018-06-13T10:52:38.754Z,22.8
2018-06-13T10:53:38.774Z,22.65
2018-06-13T10:54:24.138Z,22.52
2018-06-13T10:55:24.157Z,22.65
2018-06-13T10:56:24.188Z,22.77
2018-06-13T10:57:24.209Z,22.72
2018-06-13T10:58:24.240Z,22.62
2018-06-13T10:59:24.260Z,22.52
2018-06-13T11:00:24.340Z,22.75
2018-06-13T11:01:24.314Z,23.02
2018-06-13T11:02:38.999Z,23.28
2018-06-13T11:03:24.366Z,23.13
2018-06-13T11:04:24.394Z,23.13
2018-06-13T11:05:24.467Z,23.32
2018-06-13T11:06:24.190Z,23.47
2018-06-13T11:07:24.472Z,23.42
2018-06-13T11:08:24.251Z,23.35
2018-06-13T11:12:24.605Z,23.28
2018-06-13T11:13:24.628Z,23.22
2018-06-13T11:14:24.395Z,22.85
2018-06-13T11:15:24.423Z,22.95
2018-06-13T11:16:24.461Z,22.68
2018-06-13T11:17:24.730Z,22.36
2018-06-13T11:18:24.807Z,22.3
2018-06-13T11:19:24.528Z,21.86
2018-06-13T11:20:24.605Z,21.98
2018-06-13T11:21:24.591Z,21.9
2018-06-13T11:22:24.866Z,21.86
2018-06-13T11:23:24.628Z,21.75
2018-06-13T11:24:24.910Z,21.54
2018-06-13T11:25:39.604Z,21.69
2018-06-13T11:26:24.974Z,21.71
2018-06-13T11:27:24.740Z,21.43
2018-06-13T11:28:24.497Z,21.28
2018-06-13T11:29:25.044Z,21.24
2018-06-13T11:30:25.070Z,21.31
2018-06-13T11:31:25.111Z,21.28
2018-06-13T11:32:24.864Z,20.97
2018-06-13T11:33:25.144Z,20.87
2018-06-13T11:34:39.829Z,20.77
2018-06-13T11:35:25.192Z,20.88
2018-06-13T11:36:24.965Z,20.77
2018-06-13T11:38:25.279Z,20.43
2018-06-13T11:39:25.293Z,20.14
2018-06-13T11:40:25.323Z,20.26
2018-06-13T11:42:25.387Z,20.33
2018-06-13T11:43:25.396Z,19.81
2018-06-13T11:44:25.425Z,19.8
2018-06-13T11:45:25.192Z,19.95
2018-06-13T11:46:25.215Z,20.06
2018-06-13T11:47:40.160Z,19.96
2018-06-13T11:48:25.520Z,19.77
2018-06-13T11:49:25.295Z,19.78
2018-06-13T11:50:25.575Z,19.91
2018-06-13T11:51:25.599Z,19.94
2018-06-13T11:52:25.621Z,20.01
2018-06-13T11:54:25.669Z,19.87
2018-06-13T11:55:25.709Z,19.92
2018-06-13T11:56:25.739Z,19.86
2018-06-13T11:57:40.405Z,19.73
2018-06-13T11:58:25.774Z,19.74
2018-06-13T11:59:25.801Z,19.77
2018-06-13T12:00:25.956Z,19.71
2018-06-13T12:01:25.848Z,19.87
2018-06-13T12:02:25.931Z,19.98
2018-06-13T12:03:40.558Z,19.86
2018-06-13T12:04:25.918Z,19.83
2018-06-13T12:05:25.686Z,19.95
2018-06-13T12:06:25.710Z,20.01
2018-06-13T12:07:26.000Z,20.08
2018-06-13T12:08:26.035Z,20.23
2018-06-13T12:09:26.046Z,20.32
2018-06-13T12:10:25.825Z,20.21
2018-06-13T12:11:25.838Z,20.23
2018-06-13T12:12:26.117Z,20.11
2018-06-13T12:13:40.806Z,19.98
2018-06-13T12:14:26.173Z,19.88
2018-06-13T12:15:26.230Z,19.95
2018-06-13T12:17:26.243Z,19.8
2018-06-13T12:18:26.010Z,19.76
2018-06-13T12:19:40.955Z,19.86
2018-06-13T12:20:26.328Z,20.03
2018-06-13T12:21:26.338Z,19.99
2018-06-13T12:22:26.129Z,20.06
2018-06-13T12:23:26.239Z,20.13
2018-06-13T12:24:26.178Z,20.06
2018-06-13T12:25:26.440Z,20.32
2018-06-13T12:26:26.469Z,20.47
2018-06-13T12:27:26.496Z,20.55
2018-06-13T12:28:40.995Z,20.77
2018-06-13T12:29:26.543Z,20.8
2018-06-13T12:30:26.570Z,20.18
2018-06-13T12:31:26.641Z,20.16
2018-06-13T12:32:26.613Z,20.05
2018-06-13T12:33:26.382Z,20.08
2018-06-13T12:34:26.514Z,20.13
2018-06-13T12:35:26.432Z,20.13
2018-06-13T12:36:41.376Z,20.26
2018-06-13T12:37:41.401Z,20.32
2018-06-13T12:38:26.764Z,20.21
2018-06-13T12:39:26.786Z,20.29
2018-06-13T12:40:26.819Z,20.14
2018-06-13T12:41:26.848Z,20.14
2018-06-13T12:42:26.863Z,20.14
2018-06-13T12:43:26.889Z,20.2
2018-06-13T12:44:26.916Z,20.23
2018-06-13T12:45:27.009Z,20.17
2018-06-13T12:46:26.961Z,20.14
2018-06-13T12:47:26.986Z,20.16
2018-06-13T12:48:26.755Z,19.92
2018-06-13T12:49:27.037Z,19.33
2018-06-13T12:50:27.060Z,19.28
2018-06-13T12:51:27.125Z,19.31
2018-06-13T12:52:27.115Z,19.41
2018-06-13T12:53:26.883Z,19.5
2018-06-13T12:54:26.905Z,19.44
2018-06-13T12:55:27.186Z,19.65
2018-06-13T12:57:27.237Z,19.59
2018-06-13T12:58:27.000Z,19.44
2018-06-13T12:59:27.285Z,19.31
2018-06-13T13:00:41.712Z,19.33
2018-06-13T13:01:27.336Z,19.47
2018-06-13T13:02:27.100Z,19.69
2018-06-13T13:03:27.386Z,19.63
2018-06-13T13:04:27.407Z,19.78
2018-06-13T13:05:27.446Z,19.78
2018-06-13T13:06:27.462Z,19.88
2018-06-13T13:07:27.486Z,20.02
2018-06-13T13:08:27.260Z,20.06
2018-06-13T13:09:27.529Z,20.03
2018-06-13T13:10:27.557Z,20.05
2018-06-13T13:11:27.620Z,19.65
2018-06-13T13:12:27.605Z,19.69
2018-06-13T13:13:27.627Z,19.83
2018-06-13T13:14:27.394Z,20.02
2018-06-13T13:15:27.162Z,20.23
2018-06-13T13:16:42.364Z,20.61
2018-06-13T13:17:27.730Z,20.82
2018-06-13T13:18:27.495Z,21.07
2018-06-13T13:19:27.779Z,20.95
2018-06-13T13:20:28.029Z,20.94
2018-06-13T13:21:27.569Z,21.21
2018-06-13T13:22:27.850Z,21.25
2018-06-13T13:23:27.873Z,21.17
2018-06-13T13:24:42.562Z,21.21
2018-06-13T13:25:27.674Z,21.21
2018-06-13T13:26:27.954Z,21.29
2018-06-13T13:27:27.976Z,21.5
2018-06-13T13:28:28.001Z,21.42
2018-06-13T13:29:28.027Z,21.52
2018-06-13T13:30:28.048Z,21.43
2018-06-13T13:31:28.073Z,21.32
2018-06-13T13:32:42.760Z,21.46
2018-06-13T13:33:28.128Z,21.21
2018-06-13T13:34:27.891Z,21.19
2018-06-13T13:35:28.176Z,20.5
2018-06-13T13:36:28.199Z,20.62
2018-06-13T13:37:28.235Z,20.47
2018-06-13T13:38:28.249Z,20.23
2018-06-13T13:39:28.016Z,19.88
2018-06-13T13:40:28.295Z,19.98
2018-06-13T13:41:28.327Z,20.17
2018-06-13T13:42:28.348Z,20.13
2018-06-13T13:43:28.384Z,20.17
2018-06-13T13:44:28.407Z,20.24
2018-06-13T13:45:28.721Z,20.51
2018-06-13T13:46:28.193Z,20.73
2018-06-13T13:48:43.209Z,20.84
2018-06-13T13:49:28.268Z,20.84
2018-06-13T13:50:28.556Z,20.59
2018-06-13T13:51:28.327Z,20.59
2018-06-13T13:52:28.339Z,20.72
2018-06-13T13:53:28.632Z,20.7
2018-06-13T13:54:28.391Z,20.61
2018-06-13T13:55:28.687Z,20.66